Nearby METAR Reports

 

KMNN - Marion, Ohio, USA
Distance from station: ENE 4mi, 6km
Updated: 05/30/2020 5:53am
Mostly cloudy
Mostly cloudy
 Wind from NW
Wind: NW 9 mph , 15 km/h
Temperature: 57°F , 14°C
Dew Point: 52°F , 11°C
Humidity: 82%
Barometer: 30.07 inHg , 1018.3 hPa
Clouds: Mostly cloudy
Visibility: 10 miles , 16 km
Cloud details: Mostly cloudy 5500 ft
2020/05/30 09:53 KMNN 300953Z AUTO 31008KT 10SM BKN055 14/11 A3007 RMK AO2 SLP181 T01390106
KDLZ - Delaware, Ohio, USA
Distance from station: S 21mi, 34km
Updated: 05/30/2020 5:59am
Mostly cloudy
Mostly cloudy
 Wind from calm
Wind: Calm
Temperature: 57°F , 14°C
Dew Point: 55°F , 13°C
Humidity: 94%
Barometer: 30.07 inHg , 1018.3 hPa
Clouds: Mostly cloudy
Visibility: 10 miles , 16 km
Cloud details: Partly cloudy 3300 ft
Mostly cloudy 5000 ft
Mostly cloudy 6000 ft
2020/05/30 09:59 KDLZ 300959Z AUTO 00000KT 10SM SCT033 BKN050 BKN060 14/13 A3007 RMK AO2
 
KMRT - Marysville, Ohio, USA
Distance from station: SSW 28mi, 45km
Updated: 05/30/2020 6:19am
Mostly cloudy
Mostly cloudy
 Wind from NNW
Wind: NNW 6 mph , 9 km/h
Temperature: 57°F , 14°C
Dew Point: 52°F , 11°C
Humidity: 82%
Barometer: 30.08 inHg , 1018.6 hPa
Clouds: Mostly cloudy
Visibility: 10 miles , 16 km
Cloud details: Mostly cloudy 3700 ft
2020/05/30 10:19 KMRT 301019Z AUTO 34005KT 10SM BKN037 14/11 A3008 RMK AO1
KOSU - Columbus/St Univ, Ohio, USA
Distance from station: S 35mi, 56km
Updated: 05/30/2020 5:53am
Overcast
Overcast
 Wind from NNW
Wind: NNW 9 mph , 15 km/h
Temperature: 61°F , 16°C
Dew Point: 57°F , 14°C
Humidity: 88%
Barometer: 30.06 inHg , 1017.9 hPa
Clouds: Overcast
Visibility: 10 miles , 16 km
Cloud details: Mostly cloudy 4000 ft
Overcast 5000 ft
2020/05/30 09:53 KOSU 300953Z AUTO 33008KT 10SM BKN040 OVC050 16/14 A3006 RMK AO2 SLP176 T01560139
 
KMFD - Mansfield, Ohio, USA
Distance from station: ENE 36mi, 57km
Updated: 05/30/2020 5:52am
Mostly cloudy
Mostly cloudy
 Wind from W
Wind: W 6 mph , 9 km/h
Temperature: 61°F , 16°C
Dew Point: 57°F , 14°C
Humidity: 88%
Barometer: 30.05 inHg , 1017.6 hPa
Clouds: Mostly cloudy
Visibility: 10 miles , 16 km
Cloud details: Partly cloudy 3500 ft
Partly cloudy 4400 ft
Mostly cloudy 6500 ft
2020/05/30 09:52 KMFD 300952Z AUTO 27005KT 10SM SCT035 SCT044 BKN065 16/14 A3005 RMK AO2 SLP173 T01560139
K4I3 - Mt Vernon/Knox, Ohio, USA
Distance from station: ESE 36mi, 58km
Updated: 05/30/2020 6:16am
Mist, Mostly cloudy
Mist, Mostly cloudy
 Wind from WSW
Wind: WSW 3 mph , 6 km/h
Temperature: 57°F , 14°C
Dew Point: 55°F , 13°C
Humidity: 94%
Barometer: 30.08 inHg , 1018.6 hPa
Summary: Mist
Clouds: Mostly cloudy
Visibility: 4 miles , 6 km
Cloud details: Mostly cloudy 2700 ft
2020/05/30 10:16 K4I3 301016Z AUTO 24003KT 4SM BR BKN027 14/13 A3008 RMK AO2
 
KEDJ - Bellefontaine, Ohio, USA
Distance from station: WSW 39mi, 63km
Updated: 05/30/2020 6:20am
Partly cloudy
Partly cloudy
 Wind from NNW
Wind: NNW 5 mph , 7 km/h
Temperature: 54°F , 12°C
Barometer: 30.09 inHg , 1019 hPa
Clouds: Partly cloudy
Visibility: 10 miles , 16 km
Cloud details: Partly cloudy 5000 ft
2020/05/30 10:20 KEDJ 301020Z AUTO 33004KT 10SM SCT050 12/ A3009 RMK AO1
KFDY - Findlay, Ohio, USA
Distance from station: NW 41mi, 66km
Updated: 05/30/2020 5:53am
Clear
Clear
 Wind from WNW
Wind: WNW 7 mph , 11 km/h
Temperature: 55°F , 13°C
Dew Point: 50°F , 10°C
Humidity: 82%
Barometer: 30.05 inHg , 1017.6 hPa
Clouds: Clear
Visibility: 10 miles , 16 km
2020/05/30 09:53 KFDY 300953Z AUTO 29006KT 10SM CLR 13/10 A3005 RMK AO2 SLP172 T01330100
 
KCMH - Columbus, Ohio, USA
Distance from station: SSE 43mi, 69km
Updated: 05/30/2020 5:51am
Mostly cloudy
Mostly cloudy
 Wind from calm
Wind: Calm
Temperature: 61°F , 16°C
Dew Point: 57°F , 14°C
Humidity: 88%
Barometer: 30.05 inHg , 1017.6 hPa
Clouds: Mostly cloudy
Visibility: 10 miles , 16 km
Cloud details: Mostly cloudy 4400 ft
2020/05/30 09:51 KCMH 300951Z 00000KT 10SM BKN044 16/14 A3005 RMK AO2 SLP173 T01560144 $
KAOH - Lima, Ohio, USA
Distance from station: W 47mi, 76km
Updated: 05/30/2020 5:53am
Clear
Clear
 Wind from NW
Wind: NW 6 mph , 9 km/h
Temperature: 55°F , 13°C
Dew Point: 48°F , 9°C
Humidity: 77%
Barometer: 30.07 inHg , 1018.3 hPa
Clouds: Clear
Visibility: 10 miles , 16 km
2020/05/30 09:53 KAOH 300953Z AUTO 31005KT 10SM CLR 13/09 A3007 RMK AO2 SLP182 T01280094
 
KTZR - Columbus/Bolton, Ohio, USA
Distance from station: S 48mi, 77km
Updated: 05/30/2020 6:15am
Overcast
Overcast
 Wind from NW
Wind: NW 3 mph , 6 km/h
Temperature: 59°F , 15°C
Dew Point: 57°F , 14°C
Humidity: 94%
Barometer: 30.07 inHg , 1018.3 hPa
Clouds: Overcast
Visibility: 10 miles , 16 km
Cloud details: Overcast 3700 ft
2020/05/30 10:15 KTZR 301015Z AUTO 31003KT 10SM OVC037 15/14 A3007 RMK AO2 T01540142
KUYF - London, Ohio, USA
Distance from station: SSW 49mi, 78km
Updated: 05/30/2020 6:15am
Mostly cloudy
Mostly cloudy
 Wind from NNW
Wind: NNW 6 mph , 9 km/h
Temperature: 59°F , 15°C
Dew Point: 55°F , 13°C
Humidity: 88%
Barometer: 30.07 inHg , 1018.3 hPa
Clouds: Mostly cloudy
Visibility: 10 miles , 16 km
Cloud details: Mostly cloudy 3200 ft
Mostly cloudy 4700 ft
2020/05/30 10:15 KUYF 301015Z AUTO 34005KT 10SM BKN032 BKN047 15/13 A3007 RMK AO2